This is the latest recevied weather packets stored in our database for station/object F5IOR-13. If no packets are shown the sender has not sent any weather packets the latest 10 day(s).
| Time | Temp. | Humidity | Pressure | Rain* | Wind** | Luminosity | Snow |
|---|---|---|---|---|---|---|---|
| 1777622309 | 15.56° C | 81% | 994.3 hPa | 0 mm | - | - | - |
| 1777622069 | 15.56° C | 81% | 994.3 hPa | 0 mm | - | - | - |
| 1777621829 | 15.56° C | 81% | 994.3 hPa | 0 mm | - | - | - |
| 1777621589 | 15.56° C | 81% | 994.3 hPa | 0 mm | - | - | - |
| 1777621469 | 15.56° C | 81% | 994.3 hPa | 0 mm | - | - | - |
| 1777621349 | 15.56° C | 81% | 994.3 hPa | 0 mm | - | - | - |
| 1777621229 | 15.56° C | 81% | 994.3 hPa | 0 mm | - | - | - |
| 1777621109 | 15.56° C | 81% | 994.3 hPa | 0 mm | - | - | - |
| 1777621049 | 15.56° C | 81% | 994.3 hPa | 0 mm | - | - | - |
| 1777620989 | 15.56° C | 81% | 994.3 hPa | 0 mm | - | - | - |
| 1777620929 | 15.56° C | 81% | 994.3 hPa | 0 mm | - | - | - |
| 1777576106 | 17.78° C | 75% | 989.7 hPa | 1.52 mm | - | - | - |
| 1777574306 | 18.89° C | 76% | 989.4 hPa | 1.52 mm | - | - | - |
| 1777572506 | 19.44° C | 73% | 989.2 hPa | 1.52 mm | - | - | - |
| 1777570706 | 20° C | 65% | 989.2 hPa | 1.52 mm | - | - | - |
| 1777568906 | 21.11° C | 58% | 989.2 hPa | 1.52 mm | - | - | - |
| 1777567106 | 23.89° C | 41% | 988.9 hPa | 0 mm | - | - | - |
| 1777565306 | 24.44° C | 38% | 988.8 hPa | 0 mm | - | - | - |
| 1777563506 | 25° C | 35% | 988.6 hPa | 0 mm | - | - | - |
| 1777561706 | 25° C | 34% | 988.6 hPa | 0 mm | - | - | - |
| 1777559906 | 25° C | 34% | 988.7 hPa | 0 mm | - | - | - |
| 1777558106 | 25° C | 34% | 988.9 hPa | 0 mm | - | - | - |
| 1777556306 | 25° C | 32% | 989 hPa | 0 mm | - | - | - |
| 1777554506 | 25° C | 32% | 989.2 hPa | 0 mm | - | - | - |
| 1777552706 | 25° C | 33% | 989.3 hPa | 0 mm | - | - | - |
* Rain latest hour (hover to see other rain measurements)
** Current wind speed in m/s (hover to see current wind gust speed)